Time;durP1;ratioP1;P1;durP2;ratioP2;P2;SDS_P1;SDS_P2;PMS_P1;PMS_P2;Temp;Humidity;BMP_temperature;BMP_pressure;BME280_temperature;BME280_humidity;BME280_pressure;Samples;Min_cycle;Max_cycle;Signal;HPM_P1;HPM_P2
2022/12/01 00:02:07;;;;;;;149.80;60.27;;;;;;;3.10;100.00;102290.06;5031872;28;20041;-79
2022/12/01 00:04:33;;;;;;;151.57;59.23;;;;;;;3.03;100.00;102270.19;5050322;28;20033;-79
2022/12/01 00:06:58;;;;;;;148.10;57.97;;;;;;;3.11;100.00;102283.84;5052233;28;20029;-79
2022/12/01 00:12:08;;;;;;;142.18;55.95;;;;;;;3.08;100.00;102290.13;5046802;28;20067;-79
2022/12/01 00:14:33;;;;;;;156.20;56.87;;;;;;;3.07;100.00;102285.81;5035825;28;20059;-78
2022/12/01 00:16:58;;;;;;;149.40;57.70;;;;;;;3.06;100.00;102280.59;5032106;28;20052;-79
2022/12/01 00:19:25;;;;;;;145.27;56.27;;;;;;;3.02;100.00;102277.28;5032647;28;20033;-78
2022/12/01 00:21:50;;;;;;;131.65;56.03;;;;;;;3.12;100.00;102281.16;5050687;28;20108;-79
2022/12/01 00:24:15;;;;;;;146.27;56.63;;;;;;;3.05;100.00;102274.47;5051813;28;20056;-78
2022/12/01 00:26:41;;;;;;;133.40;54.83;;;;;;;3.03;100.00;102267.56;5051939;28;20044;-78
2022/12/01 00:29:06;;;;;;;129.67;53.23;;;;;;;3.12;100.00;102269.75;5051950;28;20091;-78
2022/12/01 00:31:32;;;;;;;140.38;54.63;;;;;;;3.11;100.00;102262.75;5053150;28;20029;-78
2022/12/01 00:33:57;;;;;;;143.13;57.53;;;;;;;3.06;100.00;102265.59;5035882;28;20043;-77
2022/12/01 00:36:23;;;;;;;125.93;51.53;;;;;;;3.09;100.00;102265.47;5052229;28;20311;-78
2022/12/01 00:38:55;;;;;;;129.15;54.80;;;;;;;3.12;100.00;102260.03;5052008;28;20135;-79
2022/12/01 00:41:22;;;;;;;119.03;49.97;;;;;;;3.09;100.00;102264.59;5053285;28;20063;-78
2022/12/01 00:43:48;;;;;;;127.15;51.40;;;;;;;3.05;100.00;102252.50;5051959;28;20061;-78
2022/12/01 00:46:13;;;;;;;121.68;51.30;;;;;;;3.02;100.00;102253.53;5035256;28;20075;-78
2022/12/01 00:48:39;;;;;;;130.57;50.53;;;;;;;3.04;100.00;102251.63;5035090;28;20033;-78
2022/12/01 00:51:04;;;;;;;140.63;55.67;;;;;;;3.02;100.00;102253.53;5051928;28;20032;-78
2022/12/01 00:53:30;;;;;;;124.40;50.53;;;;;;;3.07;100.00;102261.22;5032259;28;20029;-78
2022/12/01 00:55:55;;;;;;;125.20;52.53;;;;;;;3.06;100.00;102259.47;5051805;28;20025;-79
2022/12/01 00:58:22;;;;;;;134.27;52.75;;;;;;;3.03;100.00;102252.56;5051917;28;20194;-77
2022/12/01 01:00:48;;;;;;;135.85;51.08;;;;;;;3.04;100.00;102266.63;5034300;28;20255;-79
2022/12/01 01:03:13;;;;;;;121.88;51.05;;;;;;;3.06;100.00;102260.31;5051090;28;20498;-79
2022/12/01 01:05:41;;;;;;;124.17;50.37;;;;;;;3.07;100.00;102266.47;5049834;28;20033;-78
2022/12/01 01:08:11;;;;;;;124.97;49.97;;;;;;;3.09;100.00;102269.88;5050276;28;20476;-77
2022/12/01 01:10:38;;;;;;;124.38;50.60;;;;;;;3.02;100.00;102257.91;5051735;28;20032;-79
2022/12/01 01:13:04;;;;;;;130.90;54.05;;;;;;;3.08;100.00;102271.66;5049853;28;20378;-79
2022/12/01 01:15:29;;;;;;;124.90;51.08;;;;;;;3.08;100.00;102265.53;5050812;28;20051;-78
2022/12/01 01:17:54;;;;;;;130.70;50.77;;;;;;;3.00;100.00;102265.06;5034127;28;20033;-78
2022/12/01 01:20:20;;;;;;;123.50;47.17;;;;;;;3.13;100.00;102271.44;5050117;28;20144;-78
2022/12/01 01:22:45;;;;;;;128.50;52.60;;;;;;;3.10;100.00;102268.97;5033211;28;20049;-79
2022/12/01 01:25:11;;;;;;;124.63;52.43;;;;;;;3.07;100.00;102267.34;5034443;28;20094;-77
2022/12/01 01:27:36;;;;;;;134.03;54.37;;;;;;;3.05;100.00;102270.97;5034615;28;20397;-77
2022/12/01 01:30:02;;;;;;;121.30;48.70;;;;;;;3.07;100.00;102269.13;5050814;28;20075;-78
2022/12/01 01:32:28;;;;;;;121.65;51.60;;;;;;;3.06;100.00;102270.88;5051071;28;20063;-78
2022/12/01 01:34:53;;;;;;;134.30;53.73;;;;;;;3.03;100.00;102268.41;5050903;28;20416;-78
2022/12/01 01:37:18;;;;;;;121.13;51.50;;;;;;;3.12;100.00;102275.88;5051502;28;20029;-78
2022/12/01 01:39:44;;;;;;;123.87;54.27;;;;;;;3.12;100.00;102272.38;5033005;28;20025;-79
2022/12/01 01:42:13;;;;;;;118.88;50.28;;;;;;;3.11;100.00;102268.91;5050067;28;20090;-79
2022/12/01 01:44:59;;;;;;;128.52;52.33;;;;;;;3.11;100.00;102270.66;5032236;28;20552;-79
2022/12/01 01:47:29;;;;;;;132.07;52.30;;;;;;;3.10;100.00;102271.59;5050750;28;20040;-79
2022/12/01 01:49:58;;;;;;;123.65;53.20;;;;;;;3.09;100.00;102277.78;5052325;28;20036;-78
2022/12/01 01:52:24;;;;;;;132.88;50.35;;;;;;;3.09;100.00;102277.78;5051043;28;20108;-77
2022/12/01 01:54:53;;;;;;;129.75;50.65;;;;;;;3.10;100.00;102276.88;5050988;28;20096;-78
2022/12/01 01:57:37;;;;;;;132.48;51.95;;;;;;;3.09;100.00;102275.16;5033705;28;20104;-78
2022/12/01 02:00:09;;;;;;;126.82;50.47;;;;;;;3.14;100.00;102281.09;5045467;28;20029;-78
2022/12/01 02:02:42;;;;;;;130.32;52.35;;;;;;;3.16;100.00;102276.56;5051046;28;20128;-78
2022/12/01 02:05:12;;;;;;;128.10;49.30;;;;;;;3.15;100.00;102282.78;5050502;28;20079;-77
2022/12/01 02:07:40;;;;;;;123.97;52.40;;;;;;;3.07;100.00;102271.75;5050691;28;20025;-78
2022/12/01 02:10:08;;;;;;;119.55;48.30;;;;;;;3.03;100.00;102276.31;5033950;28;20029;-78
2022/12/01 02:13:06;;;;;;;124.15;49.50;;;;;;;3.08;100.00;102281.38;5050491;28;20039;-78
2022/12/01 02:15:49;;;;;;;126.90;50.13;;;;;;;3.12;100.00;102277.66;5049513;28;20059;-78
2022/12/01 02:18:24;;;;;;;116.63;48.70;;;;;;;3.12;100.00;102286.44;5049903;28;20466;-78
2022/12/01 02:21:09;;;;;;;126.80;48.05;;;;;;;3.10;100.00;102280.38;5049478;28;20055;-78
2022/12/01 02:23:49;;;;;;;114.77;47.47;;;;;;;3.19;100.00;102284.34;5050088;28;20036;-78
2022/12/01 02:26:55;;;;;;;114.15;47.55;;;;;;;3.05;100.00;102276.25;5050902;28;20029;-78
2022/12/01 02:30:02;;;;;;;129.73;52.42;;;;;;;2.99;100.00;102268.63;5032044;28;20045;-78
2022/12/01 02:32:49;;;;;;;136.68;50.63;;;;;;;3.00;100.00;102265.06;5032002;28;20087;-78
2022/12/01 02:35:23;;;;;;;126.40;49.00;;;;;;;2.95;100.00;102274.06;5027479;28;20116;-78
2022/12/01 02:37:58;;;;;;;131.88;51.47;;;;;;;3.04;100.00;102277.16;5047976;28;20033;-78
2022/12/01 02:40:27;;;;;;;128.63;55.50;;;;;;;2.96;100.00;102274.94;5049146;28;20032;-78
2022/12/01 02:43:21;;;;;;;122.75;48.90;;;;;;;3.09;100.00;102278.66;5050077;28;20081;-78
2022/12/01 02:46:02;;;;;;;129.63;52.10;;;;;;;2.98;100.00;102277.50;5032528;28;20066;-77
2022/12/01 02:48:41;;;;;;;148.43;55.22;;;;;;;2.88;100.00;102269.16;5051476;28;20079;-77
2022/12/01 02:51:23;;;;;;;131.52;52.25;;;;;;;2.92;100.00;102276.84;5033273;28;20036;-78
2022/12/01 02:53:49;;;;;;;126.47;49.20;;;;;;;3.05;100.00;102278.91;5051444;28;20056;-79
2022/12/01 02:56:20;;;;;;;133.65;54.55;;;;;;;3.05;100.00;102285.03;5038590;28;20071;-78
2022/12/01 02:58:45;;;;;;;142.57;53.90;;;;;;;3.07;100.00;102277.88;5051345;28;20474;-78
2022/12/01 03:01:36;;;;;;;132.70;54.13;;;;;;;3.09;100.00;102281.31;5032808;28;20104;-78
2022/12/01 03:04:20;;;;;;;137.13;53.38;;;;;;;3.06;100.00;102281.44;5043419;28;20055;-79
2022/12/01 03:07:20;;;;;;;138.80;54.22;;;;;;;3.06;100.00;102285.88;5048411;28;20029;-79
2022/12/01 03:10:03;;;;;;;138.52;54.60;;;;;;;3.08;100.00;102289.28;5048714;28;20034;-77
2022/12/01 03:12:35;;;;;;;135.88;55.05;;;;;;;3.10;100.00;102282.16;5049942;28;20040;-78
2022/12/01 03:15:34;;;;;;;142.85;52.63;;;;;;;3.00;100.00;102287.03;5050984;28;20771;-78
2022/12/01 03:18:44;;;;;;;129.38;55.03;;;;;;;3.06;100.00;102292.00;5043706;28;20455;-78
2022/12/01 03:21:25;;;;;;;130.40;51.53;;;;;;;3.10;100.00;102282.16;5049155;28;20044;-78
2022/12/01 03:24:04;;;;;;;139.25;53.10;;;;;;;3.07;100.00;102292.88;5048919;28;20086;-79
2022/12/01 03:26:34;;;;;;;139.55;55.95;;;;;;;3.11;100.00;102281.22;5049317;28;20482;-77
2022/12/01 03:29:07;;;;;;;130.63;51.90;;;;;;;3.08;100.00;102286.66;5049987;28;20056;-78
2022/12/01 03:31:39;;;;;;;152.85;56.20;;;;;;;3.05;100.00;102278.91;5033311;28;20029;-78
2022/12/01 03:34:35;;;;;;;132.75;55.38;;;;;;;3.06;100.00;102276.16;5051852;28;20040;-78
2022/12/01 03:37:08;;;;;;;138.65;50.47;;;;;;;2.97;100.00;102279.25;5042186;28;20429;-79
2022/12/01 03:39:37;;;;;;;129.25;52.30;;;;;;;3.04;100.00;102277.16;5032377;28;20025;-78
2022/12/01 03:42:35;;;;;;;124.57;52.78;;;;;;;3.07;100.00;102277.88;5049290;28;20032;-78
2022/12/01 03:45:06;;;;;;;134.68;51.60;;;;;;;2.94;100.00;102269.72;5042189;28;20029;-78
2022/12/01 03:47:36;;;;;;;137.40;52.97;;;;;;;3.01;100.00;102274.69;5032288;28;20047;-77
2022/12/01 03:50:03;;;;;;;131.38;55.78;;;;;;;2.99;100.00;102274.75;5032394;28;20131;-76
2022/12/01 03:53:01;;;;;;;147.48;55.67;;;;;;;3.00;100.00;102286.16;5048860;28;20037;-77
2022/12/01 03:55:29;;;;;;;133.15;53.50;;;;;;;3.00;100.00;102286.16;5050525;28;20101;-78
2022/12/01 03:58:12;;;;;;;137.52;54.58;;;;;;;2.98;100.00;102288.06;5048920;28;20028;-77
2022/12/01 04:00:38;;;;;;;130.85;50.45;;;;;;;3.02;100.00;102286.94;5048984;28;20047;-78
2022/12/01 04:03:05;;;;;;;130.38;50.33;;;;;;;3.06;100.00;102293.78;5049402;28;20048;-78
2022/12/01 04:05:32;;;;;;;139.50;53.38;;;;;;;3.06;100.00;102299.06;5030521;28;20462;-78
2022/12/01 04:07:58;;;;;;;133.63;53.67;;;;;;;3.05;100.00;102294.72;5025569;28;20094;-79
2022/12/01 04:10:24;;;;;;;126.30;52.78;;;;;;;3.05;100.00;102290.31;5048750;28;20111;-78
2022/12/01 04:12:49;;;;;;;133.07;52.70;;;;;;;3.03;100.00;102292.16;5031008;28;20049;-78
2022/12/01 04:15:15;;;;;;;129.83;52.40;;;;;;;3.07;100.00;102285.81;5048822;28;20155;-79
2022/12/01 04:17:43;;;;;;;140.45;54.78;;;;;;;2.99;100.00;102285.31;5032398;28;20337;-79
2022/12/01 04:20:10;;;;;;;139.45;54.40;;;;;;;2.94;100.00;102282.91;5048971;28;20048;-79
2022/12/01 04:22:35;;;;;;;135.45;51.20;;;;;;;2.91;100.00;102274.31;5049147;28;20028;-78
2022/12/01 04:25:01;;;;;;;131.35;52.67;;;;;;;2.99;100.00;102285.31;5032818;28;20029;-77
2022/12/01 04:27:26;;;;;;;132.60;53.28;;;;;;;2.93;100.00;102283.00;5050426;28;20035;-78
2022/12/01 04:29:52;;;;;;;141.67;54.20;;;;;;;3.00;100.00;102299.34;5031646;28;20041;-79
2022/12/01 04:32:17;;;;;;;138.77;52.93;;;;;;;2.95;100.00;102289.91;5048975;28;20044;-77
2022/12/01 04:34:43;;;;;;;140.07;53.13;;;;;;;2.99;100.00;102295.03;5031942;28;20264;-79
2022/12/01 04:37:08;;;;;;;126.00;51.47;;;;;;;2.89;100.00;102289.34;5049369;28;20395;-79
2022/12/01 04:39:34;;;;;;;131.20;51.88;;;;;;;2.88;100.00;102296.41;5049545;28;20079;-78
2022/12/01 04:42:00;;;;;;;137.23;52.72;;;;;;;2.92;100.00;102289.19;5032676;28;20055;-79
2022/12/01 04:44:25;;;;;;;130.02;53.40;;;;;;;2.90;100.00;102286.66;5030525;28;20902;-77
2022/12/01 04:46:51;;;;;;;138.97;56.87;;;;;;;2.92;100.00;102305.88;5031181;28;20025;-78
2022/12/01 04:49:18;;;;;;;143.25;54.17;;;;;;;2.98;100.00;102306.53;5046164;28;20124;-79
2022/12/01 04:51:43;;;;;;;132.55;55.67;;;;;;;3.00;100.00;102307.28;5047559;28;20037;-77
2022/12/01 04:54:09;;;;;;;150.55;58.70;;;;;;;2.98;100.00;102303.88;5051207;28;20091;-78
2022/12/01 04:56:34;;;;;;;138.50;52.75;;;;;;;2.88;100.00;102293.78;5051172;28;20094;-78
2022/12/01 04:59:00;;;;;;;144.97;56.30;;;;;;;2.87;100.00;102307.88;5050197;28;20021;-78
2022/12/01 05:01:25;;;;;;;145.85;56.00;;;;;;;2.93;100.00;102312.88;5031929;28;20072;-78
2022/12/01 05:03:51;;;;;;;139.65;54.42;;;;;;;2.90;100.00;102312.16;5025114;28;20049;-77
2022/12/01 05:06:20;;;;;;;138.37;55.83;;;;;;;2.95;100.00;102315.44;5030305;28;20033;-77
2022/12/01 05:08:47;;;;;;;146.73;55.67;;;;;;;2.95;100.00;102321.56;5050259;28;20151;-77
2022/12/01 05:11:12;;;;;;;;;;;;;;;2.96;100.00;102323.25;5048915;28;20020;-78
2022/12/01 05:13:39;;;;;;;145.35;54.67;;;;;;;2.85;100.00;102314.16;5050392;28;19913;-77
2022/12/01 05:16:07;;;;;;;143.27;54.58;;;;;;;2.78;100.00;102308.31;5050997;28;20090;-78
2022/12/01 05:18:33;;;;;;;144.98;54.83;;;;;;;2.86;100.00;102322.00;5048644;28;20040;-79
2022/12/01 05:20:59;;;;;;;141.25;56.00;;;;;;;2.87;100.00;102307.03;5049902;28;20017;-78
2022/12/01 05:23:26;;;;;;;136.70;53.35;;;;;;;2.86;100.00;102315.88;5051010;28;20498;-78
2022/12/01 05:25:51;;;;;;;139.48;52.78;;;;;;;2.85;100.00;102314.16;5050573;28;20387;-78
2022/12/01 05:28:17;;;;;;;139.18;51.38;;;;;;;2.83;100.00;102316.00;5051131;28;20044;-78
2022/12/01 05:30:43;;;;;;;128.13;51.17;;;;;;;2.79;100.00;102303.94;5048043;28;20410;-78
2022/12/01 05:33:08;;;;;;;131.38;51.17;;;;;;;2.81;100.00;102307.31;5050396;28;20021;-78
2022/12/01 05:35:34;;;;;;;124.10;48.67;;;;;;;2.85;100.00;102304.44;5050146;28;20037;-78
2022/12/01 05:37:59;;;;;;;119.50;47.90;;;;;;;2.84;100.00;102301.91;5050773;28;20083;-78
2022/12/01 05:40:24;;;;;;;147.07;50.67;;;;;;;2.81;100.00;102300.28;5051135;28;20547;-78
2022/12/01 05:42:50;;;;;;;125.87;49.87;;;;;;;2.76;100.00;102307.53;5051996;28;20047;-78
2022/12/01 05:45:15;;;;;;;120.13;47.03;;;;;;;2.84;100.00;102312.47;5048903;28;20337;-78
2022/12/01 05:47:40;;;;;;;124.00;49.77;;;;;;;2.82;100.00;102301.97;5050356;28;20033;-78
2022/12/01 05:50:06;;;;;;;139.50;50.63;;;;;;;2.81;100.00;102308.19;5052484;28;20097;-78
2022/12/01 05:52:34;;;;;;;132.30;50.55;;;;;;;2.80;100.00;102305.63;5032348;28;20339;-78
2022/12/01 05:54:59;;;;;;;122.85;50.83;;;;;;;2.82;100.00;102311.69;5050864;28;20033;-78
2022/12/01 05:57:25;;;;;;;140.02;51.25;;;;;;;2.82;100.00;102309.88;5050425;28;20155;-79
2022/12/01 05:59:50;;;;;;;141.40;50.53;;;;;;;2.79;100.00;102309.19;5033876;28;20041;-79
2022/12/01 06:02:15;;;;;;;138.70;52.67;;;;;;;2.73;100.00;102312.97;5032989;28;20036;-76
2022/12/01 06:04:41;;;;;;;119.90;49.50;;;;;;;2.77;100.00;102324.25;5032741;28;20032;-75
2022/12/01 06:07:07;;;;;;;128.68;50.55;;;;;;;2.72;100.00;102325.31;5049935;28;20286;-78
2022/12/01 06:09:32;;;;;;;120.80;48.80;;;;;;;2.80;100.00;102327.56;5030774;28;20406;-77
2022/12/01 06:11:57;;;;;;;133.07;49.23;;;;;;;2.79;100.00;102325.88;5049806;28;20279;-78
2022/12/01 06:14:23;;;;;;;126.63;48.80;;;;;;;2.80;100.00;102327.56;5050318;28;20044;-78
2022/12/01 06:16:48;;;;;;;133.37;51.23;;;;;;;2.78;100.00;102318.88;5051260;28;20033;-78
2022/12/01 06:19:13;;;;;;;122.23;47.67;;;;;;;2.81;100.00;102318.75;5049490;28;20043;-78
2022/12/01 06:21:39;;;;;;;117.20;48.40;;;;;;;2.79;100.00;102325.03;5046429;28;20094;-78
2022/12/01 06:24:04;;;;;;;125.63;48.73;;;;;;;2.76;100.00;102326.00;5032744;28;20037;-77
2022/12/01 06:26:30;;;;;;;122.43;47.53;;;;;;;2.68;100.00;102322.88;5048105;28;20033;-77
2022/12/01 06:28:55;;;;;;;120.67;45.43;;;;;;;2.65;100.00;102323.03;5029850;28;20037;-77
2022/12/01 06:31:20;;;;;;;104.93;43.13;;;;;;;2.58;100.00;102325.09;5045705;28;20387;-76
2022/12/01 06:33:46;;;;;;;111.03;45.17;;;;;;;2.54;100.00;102324.38;5032773;28;20164;-77
2022/12/01 06:36:11;;;;;;;117.70;44.93;;;;;;;2.65;100.00;102331.81;5033504;28;20037;-77
2022/12/01 06:38:37;;;;;;;112.03;41.47;;;;;;;2.62;100.00;102324.03;5032403;28;20025;-77
2022/12/01 06:41:03;;;;;;;133.37;45.90;;;;;;;2.60;100.00;102327.66;5048295;28;20025;-78
2022/12/01 06:43:29;;;;;;;;;;;;;;;2.60;100.00;102328.53;5049761;28;20290;-79
2022/12/01 06:45:54;;;;;;;119.82;43.47;;;;;;;2.61;100.00;102326.75;5032127;28;19930;-79
2022/12/01 06:48:19;;;;;;;119.63;43.53;;;;;;;2.36;100.00;102319.13;5049053;28;20044;-78
2022/12/01 06:50:45;;;;;;;142.00;45.47;;;;;;;2.33;100.00;102317.47;5049392;28;20279;-76
2022/12/01 06:53:10;;;;;;;121.97;43.97;;;;;;;2.38;100.00;102336.56;5050236;28;20036;-78
2022/12/01 06:55:37;;;;;;;124.18;43.85;;;;;;;2.28;100.00;102333.50;5049798;28;20033;-76
2022/12/01 06:58:03;;;;;;;129.10;45.17;;;;;;;2.33;100.00;102344.69;5048491;28;20035;-79
2022/12/01 07:00:29;;;;;;;129.38;46.92;;;;;;;2.33;100.00;102351.75;5048899;28;20037;-78
2022/12/01 07:02:54;;;;;;;126.55;45.25;;;;;;;2.31;100.00;102345.69;5049679;28;20090;-79
2022/12/01 07:05:20;;;;;;;123.00;47.30;;;;;;;2.35;100.00;102357.81;5049262;28;20041;-78
2022/12/01 07:07:45;;;;;;;152.98;50.50;;;;;;;2.29;100.00;102352.81;5043214;28;20330;-76
2022/12/01 07:10:12;;;;;;;131.35;43.75;;;;;;;2.29;100.00;102358.06;5028861;28;20056;-76
2022/12/01 07:12:38;;;;;;;127.60;45.60;;;;;;;2.23;100.00;102353.09;5046469;28;20039;-78
2022/12/01 07:15:05;;;;;;;127.20;44.13;;;;;;;2.22;100.00;102356.63;5032187;28;20518;-77
2022/12/01 07:17:31;;;;;;;133.15;46.28;;;;;;;2.28;100.00;102369.56;5049101;28;20035;-76
2022/12/01 07:19:56;;;;;;;136.18;43.05;;;;;;;2.36;100.00;102372.69;5047674;28;20017;-77
2022/12/01 07:22:22;;;;;;;117.13;44.03;;;;;;;2.39;100.00;102385.75;5048510;28;20477;-77
2022/12/01 07:24:47;;;;;;;112.93;43.50;;;;;;;2.27;100.00;102375.72;5047608;28;20287;-79
2022/12/01 07:27:12;;;;;;;128.03;45.30;;;;;;;2.39;100.00;102388.38;5030142;28;20025;-79
2022/12/01 07:29:38;;;;;;;106.03;40.83;;;;;;;2.39;100.00;102380.47;5047480;28;20784;-77
2022/12/01 07:32:03;;;;;;;112.87;44.63;;;;;;;2.42;100.00;102396.13;5047312;28;20419;-79
2022/12/01 07:34:28;;;;;;;124.40;43.05;;;;;;;2.35;100.00;102394.72;5031492;28;20021;-79
2022/12/01 07:36:54;;;;;;;108.63;43.13;;;;;;;2.35;100.00;102381.53;5047814;28;20390;-77
2022/12/01 07:39:19;;;;;;;114.23;40.70;;;;;;;2.39;100.00;102396.28;5048798;28;20060;-79
2022/12/01 07:41:44;;;;;;;110.90;40.80;;;;;;;2.32;100.00;102394.84;5053707;28;20390;-78
2022/12/01 07:44:10;;;;;;;114.27;41.53;;;;;;;2.42;100.00;102406.69;5032540;28;20079;-77
2022/12/01 07:46:36;;;;;;;93.60;41.60;;;;;;;2.43;100.00;102403.09;5031882;28;20036;-77
2022/12/01 07:49:05;;;;;;;115.60;43.72;;;;;;;2.47;100.00;102412.59;5032449;28;20448;-77
2022/12/01 07:51:30;;;;;;;116.75;41.75;;;;;;;2.49;100.00;102402.84;5048794;28;20033;-76
2022/12/01 07:54:01;;;;;;;118.75;45.70;;;;;;;2.54;100.00;102416.66;5048468;28;20116;-76
2022/12/01 07:56:27;;;;;;;106.20;40.65;;;;;;;2.38;100.00;102405.09;5049292;28;20044;-77
2022/12/01 07:58:53;;;;;;;102.00;39.35;;;;;;;2.31;100.00;102390.50;5032284;28;20017;-78
2022/12/01 08:01:21;;;;;;;108.22;40.92;;;;;;;2.45;100.00;102395.16;5048720;28;20040;-78
2022/12/01 08:03:52;;;;;;;105.05;41.03;;;;;;;2.35;100.00;102378.88;5049372;28;20108;-76
2022/12/01 08:06:18;;;;;;;100.22;41.75;;;;;;;2.35;100.00;102378.88;5049356;28;20032;-79
2022/12/01 08:08:44;;;;;;;;;;;;;;;2.39;100.00;102380.47;5033148;28;20430;-79
2022/12/01 08:11:20;;;;;;;111.03;38.85;;;;;;;2.28;100.00;102370.41;5048944;28;19959;-78
2022/12/01 08:13:46;;;;;;;105.55;41.05;;;;;;;2.41;100.00;102390.94;5048970;28;20037;-76
2022/12/01 08:16:14;;;;;;;103.07;42.17;;;;;;;2.32;100.00;102379.03;5032340;28;20032;-78
2022/12/01 08:18:41;;;;;;;107.93;41.85;;;;;;;2.28;100.00;102391.47;5031378;28;20490;-79
2022/12/01 08:21:09;;;;;;;108.05;39.25;;;;;;;2.30;100.00;102386.16;5032079;28;20056;-79
2022/12/01 08:23:34;;;;;;;106.78;40.55;;;;;;;2.37;100.00;102384.94;5049511;28;20044;-78
2022/12/01 08:26:11;;;;;;;106.90;40.38;;;;;;;2.44;100.00;102391.66;5048777;28;20095;-78
2022/12/01 08:28:37;;;;;;;100.68;36.88;;;;;;;2.32;100.00;102374.63;5036663;28;20095;-78
2022/12/01 08:31:17;;;;;;;92.45;38.25;;;;;;;2.23;100.00;102375.03;5052843;28;20037;-78
2022/12/01 08:33:43;;;;;;;102.25;37.80;;;;;;;2.39;100.00;102369.94;5052420;28;20043;-79
2022/12/01 08:36:08;;;;;;;105.28;36.90;;;;;;;2.30;100.00;102371.19;5036138;28;20025;-79
2022/12/01 08:38:34;;;;;;;96.75;38.78;;;;;;;2.30;100.00;102368.56;5036790;28;20474;-76
2022/12/01 08:41:01;;;;;;;96.13;37.28;;;;;;;2.20;100.00;102369.91;5036600;28;20035;-78
2022/12/01 08:43:27;;;;;;;99.72;38.25;;;;;;;2.17;100.00;102371.81;5053128;28;20040;-78
2022/12/01 08:45:53;;;;;;;;;;;;;;;2.30;100.00;102383.53;5035532;28;20394;-79
2022/12/01 08:48:18;;;;;;;99.38;35.58;;;;;;;2.31;100.00;102387.84;5053395;28;19919;-78
2022/12/01 08:50:43;;;;;;;100.50;36.17;;;;;;;2.45;100.00;102393.34;5035025;28;20021;-79
2022/12/01 08:53:09;;;;;;;98.30;35.90;;;;;;;2.51;100.00;102385.19;5036620;28;20120;-79
2022/12/01 08:55:35;;;;;;;103.30;37.67;;;;;;;2.63;100.00;102401.38;5052412;28;20025;-77
2022/12/01 08:58:00;;;;;;;96.95;37.67;;;;;;;2.58;100.00;102388.41;5053614;28;20279;-78
2022/12/01 09:00:25;;;;;;;98.13;36.50;;;;;;;2.39;100.00;102374.31;5053609;28;20429;-78
2022/12/01 09:02:50;;;;;;;99.90;36.13;;;;;;;2.28;100.00;102367.75;5052991;28;20036;-76
2022/12/01 09:05:16;;;;;;;100.70;37.63;;;;;;;2.37;100.00;102363.00;5051136;28;20032;-77
2022/12/01 09:07:41;;;;;;;100.53;34.77;;;;;;;2.29;100.00;102372.13;5032828;28;20043;-78
2022/12/01 09:10:08;;;;;;;103.30;34.83;;;;;;;2.38;100.00;102375.25;5052399;28;20025;-77
2022/12/01 09:12:33;;;;;;;96.40;35.22;;;;;;;2.25;100.00;102373.19;5051785;28;20047;-79
2022/12/01 09:14:59;;;;;;;93.25;37.08;;;;;;;2.41;100.00;102375.09;5034284;28;20021;-77
2022/12/01 09:17:24;;;;;;;103.00;39.22;;;;;;;2.25;100.00;102367.91;5034004;28;20037;-78
2022/12/01 09:19:49;;;;;;;102.93;38.27;;;;;;;2.29;100.00;102381.78;5033928;28;20108;-78
2022/12/01 09:22:15;;;;;;;101.27;37.93;;;;;;;2.29;100.00;102384.44;5034496;28;21278;-78
2022/12/01 09:24:40;;;;;;;107.25;36.95;;;;;;;2.22;100.00;102381.22;5050674;28;20873;-77
2022/12/01 09:27:05;;;;;;;114.43;38.80;;;;;;;2.19;100.00;102388.41;5052721;28;20071;-77
2022/12/01 09:29:31;;;;;;;113.47;37.77;;;;;;;2.20;100.00;102387.47;5034476;28;20033;-76
2022/12/01 09:31:58;;;;;;;97.00;33.53;;;;;;;2.26;100.00;102400.38;5051306;28;20289;-78
2022/12/01 09:34:24;;;;;;;102.22;36.95;;;;;;;2.36;100.00;102406.94;5050108;28;20086;-77
2022/12/01 09:36:49;;;;;;;103.38;34.78;;;;;;;2.31;100.00;102390.50;5052225;28;20449;-77
2022/12/01 09:39:17;;;;;;;99.60;36.10;;;;;;;2.34;100.00;102403.53;5052443;28;20044;-78
2022/12/01 09:41:45;;;;;;;116.57;39.90;;;;;;;2.41;100.00;102405.00;5035270;28;20429;-79
2022/12/01 09:44:33;;;;;;;112.05;38.70;;;;;;;2.44;100.00;102404.84;5052494;28;20028;-77
2022/12/01 09:47:01;;;;;;;101.95;37.63;;;;;;;2.50;100.00;102414.25;5044229;28;20039;-78
2022/12/01 09:49:41;;;;;;;106.15;37.55;;;;;;;2.47;100.00;102398.56;5050503;28;20044;-78
2022/12/01 09:52:11;;;;;;;104.80;37.72;;;;;;;2.59;100.00;102402.44;5050641;28;20040;-79
2022/12/01 09:54:36;;;;;;;104.55;36.95;;;;;;;2.42;100.00;102390.88;5052089;28;20048;-78
2022/12/01 09:57:02;;;;;;;100.20;38.60;;;;;;;2.38;100.00;102384.00;5050809;28;20391;-76
2022/12/01 09:59:34;;;;;;;101.68;36.08;;;;;;;2.25;100.00;102382.88;5050689;28;20032;-77
2022/12/01 10:02:22;;;;;;;101.63;35.13;;;;;;;2.46;100.00;102386.31;5034026;28;20028;-78
2022/12/01 10:04:50;;;;;;;105.10;37.38;;;;;;;2.47;100.00;102393.28;5050909;28;20029;-78
2022/12/01 10:07:19;;;;;;;104.30;35.13;;;;;;;2.65;100.00;102402.16;5030610;28;20023;-76
2022/12/01 10:10:09;;;;;;;109.20;35.58;;;;;;;2.70;100.00;102394.88;5033370;28;20098;-76
2022/12/01 10:12:34;;;;;;;108.65;36.05;;;;;;;2.79;100.00;102391.81;5050231;28;20036;-78
2022/12/01 10:15:14;;;;;;;102.57;36.70;;;;;;;2.84;100.00;102375.78;5052101;28;20032;-78
2022/12/01 10:17:51;;;;;;;108.13;36.63;;;;;;;2.90;100.00;102370.19;5050067;28;20082;-79
2022/12/01 10:20:43;;;;;;;109.25;38.92;;;;;;;2.76;100.00;102352.38;5051622;28;20371;-79
2022/12/01 10:23:21;;;;;;;102.30;36.30;;;;;;;2.77;100.00;102348.81;5043577;28;20295;-78
2022/12/01 10:25:56;;;;;;;98.60;36.25;;;;;;;2.77;100.00;102338.28;5051727;28;20112;-79
2022/12/01 10:28:34;;;;;;;112.65;37.78;;;;;;;2.89;100.00;102342.97;5050087;28;20100;-79
2022/12/01 10:31:34;;;;;;;111.80;34.72;;;;;;;2.74;100.00;102323.44;5049700;28;20486;-78
2022/12/01 10:34:14;;;;;;;102.55;35.65;;;;;;;3.04;100.00;102345.78;5042128;28;20025;-78
2022/12/01 10:36:39;;;;;;;99.45;36.15;;;;;;;3.02;100.00;102326.53;5049762;28;20032;-77
2022/12/01 10:39:06;;;;;;;90.53;33.35;;;;;;;2.65;100.00;102300.16;5050111;28;20410;-78
2022/12/01 10:41:35;;;;;;;102.53;34.63;;;;;;;2.74;100.00;102309.41;5050541;28;20033;-76
2022/12/01 10:44:04;;;;;;;102.22;36.58;;;;;;;2.82;100.00;102304.63;5049384;28;20888;-77
2022/12/01 10:46:45;;;;;;;96.75;33.50;;;;;;;2.58;100.00;102272.38;5050067;28;20123;-76
2022/12/01 10:49:15;;;;;;;87.95;31.60;;;;;;;2.76;100.00;102294.34;5049459;28;20029;-76
2022/12/01 10:51:57;;;;;;;86.63;35.65;;;;;;;2.85;100.00;102282.50;5049613;28;20054;-77
2022/12/01 10:54:31;;;;;;;88.95;32.88;;;;;;;3.02;100.00;102284.31;5032736;28;20120;-77
2022/12/01 10:56:58;;;;;;;84.72;32.40;;;;;;;3.02;100.00;102265.84;5050801;28;20032;-79
2022/12/01 10:59:41;;;;;;;79.68;29.88;;;;;;;2.98;100.00;102253.75;5033687;28;20505;-78
2022/12/01 11:02:16;;;;;;;82.32;33.17;;;;;;;2.87;100.00;102233.16;5027814;28;20384;-78
2022/12/01 11:04:45;;;;;;;82.20;27.85;;;;;;;2.91;100.00;102234.72;5047945;28;20064;-77
2022/12/01 11:07:15;;;;;;;75.25;29.55;;;;;;;2.58;100.00;102206.44;5048700;28;20045;-76
2022/12/01 11:09:44;;;;;;;83.32;31.70;;;;;;;2.78;100.00;102229.19;5049546;28;20037;-77
2022/12/01 11:12:15;;;;;;;82.22;30.65;;;;;;;2.80;100.00;102231.75;5048079;28;20036;-76
2022/12/01 11:14:44;;;;;;;89.07;33.08;;;;;;;2.72;100.00;102235.63;5055219;28;20036;-76
2022/12/01 11:17:34;;;;;;;89.15;32.00;;;;;;;3.01;100.00;102248.31;5049148;28;20040;-79
2022/12/01 11:20:30;;;;;;;77.05;26.20;;;;;;;2.67;100.00;102202.47;5049387;28;20044;-79